sensor_id;sensor_type;location;lat;lon;timestamp;P1;durP1;ratioP1;P2;durP2;ratioP2
20441;SDS011;10380;52.102;20.614;2022-08-24T00:01:10;12.23;;;7.40;;
20441;SDS011;10380;52.102;20.614;2022-08-24T00:03:40;10.85;;;8.23;;
20441;SDS011;10380;52.102;20.614;2022-08-24T00:06:10;11.82;;;7.82;;
20441;SDS011;10380;52.102;20.614;2022-08-24T00:08:40;11.80;;;7.57;;
20441;SDS011;10380;52.102;20.614;2022-08-24T00:11:07;9.10;;;7.53;;
20441;SDS011;10380;52.102;20.614;2022-08-24T00:13:34;12.60;;;8.55;;
20441;SDS011;10380;52.102;20.614;2022-08-24T00:16:05;8.95;;;8.05;;
20441;SDS011;10380;52.102;20.614;2022-08-24T00:18:33;14.00;;;8.38;;
20441;SDS011;10380;52.102;20.614;2022-08-24T00:21:00;9.68;;;8.35;;
20441;SDS011;10380;52.102;20.614;2022-08-24T00:23:28;14.45;;;9.27;;
20441;SDS011;10380;52.102;20.614;2022-08-24T00:25:55;13.07;;;8.98;;
20441;SDS011;10380;52.102;20.614;2022-08-24T00:28:23;11.95;;;9.00;;
20441;SDS011;10380;52.102;20.614;2022-08-24T00:30:50;13.57;;;9.18;;
20441;SDS011;10380;52.102;20.614;2022-08-24T00:33:17;11.48;;;8.90;;
20441;SDS011;10380;52.102;20.614;2022-08-24T00:35:45;9.88;;;8.80;;
20441;SDS011;10380;52.102;20.614;2022-08-24T00:38:12;12.25;;;9.60;;
20441;SDS011;10380;52.102;20.614;2022-08-24T00:40:41;18.40;;;9.15;;
20441;SDS011;10380;52.102;20.614;2022-08-24T00:43:10;14.02;;;9.10;;
20441;SDS011;10380;52.102;20.614;2022-08-24T00:45:43;12.00;;;9.15;;
20441;SDS011;10380;52.102;20.614;2022-08-24T00:48:14;12.40;;;9.30;;
20441;SDS011;10380;52.102;20.614;2022-08-24T00:50:57;11.57;;;9.35;;
20441;SDS011;10380;52.102;20.614;2022-08-24T00:53:33;11.43;;;8.75;;
20441;SDS011;10380;52.102;20.614;2022-08-24T00:56:04;10.55;;;8.63;;
20441;SDS011;10380;52.102;20.614;2022-08-24T00:58:36;12.27;;;9.30;;
20441;SDS011;10380;52.102;20.614;2022-08-24T01:01:07;14.35;;;9.32;;
20441;SDS011;10380;52.102;20.614;2022-08-24T01:03:35;14.90;;;8.80;;
20441;SDS011;10380;52.102;20.614;2022-08-24T01:06:03;14.90;;;9.57;;
20441;SDS011;10380;52.102;20.614;2022-08-24T01:08:31;11.82;;;9.10;;
20441;SDS011;10380;52.102;20.614;2022-08-24T01:11:02;11.15;;;9.32;;
20441;SDS011;10380;52.102;20.614;2022-08-24T01:13:38;16.60;;;9.70;;
20441;SDS011;10380;52.102;20.614;2022-08-24T01:16:08;14.57;;;9.95;;
20441;SDS011;10380;52.102;20.614;2022-08-24T01:18:36;11.82;;;9.38;;
20441;SDS011;10380;52.102;20.614;2022-08-24T01:21:19;15.55;;;10.05;;
20441;SDS011;10380;52.102;20.614;2022-08-24T01:23:51;10.25;;;8.88;;
20441;SDS011;10380;52.102;20.614;2022-08-24T01:26:27;12.23;;;10.93;;
20441;SDS011;10380;52.102;20.614;2022-08-24T01:29:08;11.80;;;10.13;;
20441;SDS011;10380;52.102;20.614;2022-08-24T01:31:39;12.82;;;10.40;;
20441;SDS011;10380;52.102;20.614;2022-08-24T01:34:07;12.02;;;9.02;;
20441;SDS011;10380;52.102;20.614;2022-08-24T01:39:23;11.48;;;9.90;;
20441;SDS011;10380;52.102;20.614;2022-08-24T01:41:54;15.15;;;10.88;;
20441;SDS011;10380;52.102;20.614;2022-08-24T01:44:22;16.05;;;10.38;;
20441;SDS011;10380;52.102;20.614;2022-08-24T01:46:52;14.73;;;11.93;;
20441;SDS011;10380;52.102;20.614;2022-08-24T01:49:20;17.08;;;11.52;;
20441;SDS011;10380;52.102;20.614;2022-08-24T01:51:50;14.68;;;11.07;;
20441;SDS011;10380;52.102;20.614;2022-08-24T01:54:17;15.57;;;10.38;;
20441;SDS011;10380;52.102;20.614;2022-08-24T01:56:45;15.65;;;11.07;;
20441;SDS011;10380;52.102;20.614;2022-08-24T01:59:13;21.17;;;10.70;;
20441;SDS011;10380;52.102;20.614;2022-08-24T02:01:46;13.73;;;10.88;;
20441;SDS011;10380;52.102;20.614;2022-08-24T02:04:17;14.98;;;11.20;;
20441;SDS011;10380;52.102;20.614;2022-08-24T02:06:44;17.13;;;10.68;;
20441;SDS011;10380;52.102;20.614;2022-08-24T02:09:11;16.17;;;11.90;;
20441;SDS011;10380;52.102;20.614;2022-08-24T02:11:39;19.08;;;12.57;;
20441;SDS011;10380;52.102;20.614;2022-08-24T02:14:07;14.80;;;12.30;;
20441;SDS011;10380;52.102;20.614;2022-08-24T02:16:35;18.52;;;12.57;;
20441;SDS011;10380;52.102;20.614;2022-08-24T02:19:02;17.08;;;12.10;;
20441;SDS011;10380;52.102;20.614;2022-08-24T02:21:29;16.65;;;12.40;;
20441;SDS011;10380;52.102;20.614;2022-08-24T02:23:56;15.85;;;12.15;;
20441;SDS011;10380;52.102;20.614;2022-08-24T02:26:23;19.08;;;11.38;;
20441;SDS011;10380;52.102;20.614;2022-08-24T02:28:56;13.45;;;12.15;;
20441;SDS011;10380;52.102;20.614;2022-08-24T02:31:29;17.80;;;11.88;;
20441;SDS011;10380;52.102;20.614;2022-08-24T02:33:56;18.63;;;13.27;;
20441;SDS011;10380;52.102;20.614;2022-08-24T02:36:23;16.45;;;11.80;;
20441;SDS011;10380;52.102;20.614;2022-08-24T02:38:53;20.25;;;12.82;;
20441;SDS011;10380;52.102;20.614;2022-08-24T02:41:21;16.48;;;12.60;;
20441;SDS011;10380;52.102;20.614;2022-08-24T02:43:50;18.83;;;11.55;;
20441;SDS011;10380;52.102;20.614;2022-08-24T02:46:18;15.65;;;10.80;;
20441;SDS011;10380;52.102;20.614;2022-08-24T02:48:47;18.17;;;13.48;;
20441;SDS011;10380;52.102;20.614;2022-08-24T02:51:26;19.23;;;13.80;;
20441;SDS011;10380;52.102;20.614;2022-08-24T02:53:55;16.92;;;12.77;;
20441;SDS011;10380;52.102;20.614;2022-08-24T02:56:23;14.73;;;13.15;;
20441;SDS011;10380;52.102;20.614;2022-08-24T02:58:51;16.67;;;12.23;;
20441;SDS011;10380;52.102;20.614;2022-08-24T03:01:19;15.68;;;12.23;;
20441;SDS011;10380;52.102;20.614;2022-08-24T03:03:55;14.95;;;12.02;;
20441;SDS011;10380;52.102;20.614;2022-08-24T03:06:23;15.05;;;12.43;;
20441;SDS011;10380;52.102;20.614;2022-08-24T03:08:50;14.93;;;13.35;;
20441;SDS011;10380;52.102;20.614;2022-08-24T03:11:22;19.60;;;12.80;;
20441;SDS011;10380;52.102;20.614;2022-08-24T03:13:54;17.30;;;12.75;;
20441;SDS011;10380;52.102;20.614;2022-08-24T03:16:24;17.45;;;12.88;;
20441;SDS011;10380;52.102;20.614;2022-08-24T03:18:52;19.30;;;13.73;;
20441;SDS011;10380;52.102;20.614;2022-08-24T03:21:19;21.73;;;15.40;;
20441;SDS011;10380;52.102;20.614;2022-08-24T03:23:47;16.48;;;12.68;;
20441;SDS011;10380;52.102;20.614;2022-08-24T03:26:14;21.77;;;13.60;;
20441;SDS011;10380;52.102;20.614;2022-08-24T03:28:41;22.42;;;15.05;;
20441;SDS011;10380;52.102;20.614;2022-08-24T03:31:11;24.10;;;14.73;;
20441;SDS011;10380;52.102;20.614;2022-08-24T03:33:38;16.08;;;12.88;;
20441;SDS011;10380;52.102;20.614;2022-08-24T03:36:06;16.58;;;13.60;;
20441;SDS011;10380;52.102;20.614;2022-08-24T03:38:39;20.33;;;14.45;;
20441;SDS011;10380;52.102;20.614;2022-08-24T03:41:06;15.95;;;12.90;;
20441;SDS011;10380;52.102;20.614;2022-08-24T03:43:34;19.80;;;12.45;;
20441;SDS011;10380;52.102;20.614;2022-08-24T03:46:13;19.10;;;13.18;;
20441;SDS011;10380;52.102;20.614;2022-08-24T03:48:42;16.10;;;12.55;;
20441;SDS011;10380;52.102;20.614;2022-08-24T03:51:10;15.57;;;12.52;;
20441;SDS011;10380;52.102;20.614;2022-08-24T03:53:42;16.63;;;11.80;;
20441;SDS011;10380;52.102;20.614;2022-08-24T03:56:10;16.23;;;12.27;;
20441;SDS011;10380;52.102;20.614;2022-08-24T03:58:38;15.00;;;11.95;;
20441;SDS011;10380;52.102;20.614;2022-08-24T04:01:07;14.82;;;11.98;;
20441;SDS011;10380;52.102;20.614;2022-08-24T04:03:38;19.70;;;14.45;;
20441;SDS011;10380;52.102;20.614;2022-08-24T04:06:07;22.55;;;13.63;;
20441;SDS011;10380;52.102;20.614;2022-08-24T04:08:37;19.25;;;13.23;;
20441;SDS011;10380;52.102;20.614;2022-08-24T04:11:04;17.98;;;13.77;;
20441;SDS011;10380;52.102;20.614;2022-08-24T04:13:37;18.60;;;13.77;;
20441;SDS011;10380;52.102;20.614;2022-08-24T04:16:16;17.55;;;13.80;;
20441;SDS011;10380;52.102;20.614;2022-08-24T04:18:47;19.80;;;14.52;;
20441;SDS011;10380;52.102;20.614;2022-08-24T04:21:16;24.65;;;16.02;;
20441;SDS011;10380;52.102;20.614;2022-08-24T04:23:48;23.58;;;16.13;;
20441;SDS011;10380;52.102;20.614;2022-08-24T04:26:18;26.00;;;16.33;;
20441;SDS011;10380;52.102;20.614;2022-08-24T04:29:07;20.20;;;16.08;;
20441;SDS011;10380;52.102;20.614;2022-08-24T04:31:36;19.38;;;15.55;;
20441;SDS011;10380;52.102;20.614;2022-08-24T04:34:04;21.33;;;16.25;;
20441;SDS011;10380;52.102;20.614;2022-08-24T04:36:32;20.65;;;15.55;;
20441;SDS011;10380;52.102;20.614;2022-08-24T04:39:00;23.20;;;14.70;;
20441;SDS011;10380;52.102;20.614;2022-08-24T04:41:28;22.52;;;14.73;;
20441;SDS011;10380;52.102;20.614;2022-08-24T04:43:57;18.65;;;14.65;;
20441;SDS011;10380;52.102;20.614;2022-08-24T04:46:25;22.45;;;14.82;;
20441;SDS011;10380;52.102;20.614;2022-08-24T04:48:53;19.52;;;15.30;;
20441;SDS011;10380;52.102;20.614;2022-08-24T04:51:21;17.80;;;14.25;;
20441;SDS011;10380;52.102;20.614;2022-08-24T04:53:48;19.73;;;13.77;;
20441;SDS011;10380;52.102;20.614;2022-08-24T04:56:17;22.75;;;15.93;;
20441;SDS011;10380;52.102;20.614;2022-08-24T04:58:46;17.50;;;14.52;;
20441;SDS011;10380;52.102;20.614;2022-08-24T05:01:15;17.40;;;14.65;;
20441;SDS011;10380;52.102;20.614;2022-08-24T05:03:48;18.45;;;14.77;;
20441;SDS011;10380;52.102;20.614;2022-08-24T05:06:17;21.33;;;13.73;;
20441;SDS011;10380;52.102;20.614;2022-08-24T05:08:45;16.63;;;14.00;;
20441;SDS011;10380;52.102;20.614;2022-08-24T05:11:13;20.77;;;15.05;;
20441;SDS011;10380;52.102;20.614;2022-08-24T05:13:43;20.13;;;14.95;;
20441;SDS011;10380;52.102;20.614;2022-08-24T05:16:12;23.33;;;14.77;;
20441;SDS011;10380;52.102;20.614;2022-08-24T05:18:41;15.27;;;13.68;;
20441;SDS011;10380;52.102;20.614;2022-08-24T05:21:10;19.60;;;15.98;;
20441;SDS011;10380;52.102;20.614;2022-08-24T05:23:40;18.50;;;15.00;;
20441;SDS011;10380;52.102;20.614;2022-08-24T05:26:13;21.52;;;14.52;;
20441;SDS011;10380;52.102;20.614;2022-08-24T05:28:45;17.98;;;14.38;;
20441;SDS011;10380;52.102;20.614;2022-08-24T05:31:15;19.25;;;14.70;;
20441;SDS011;10380;52.102;20.614;2022-08-24T05:33:45;22.20;;;15.13;;
20441;SDS011;10380;52.102;20.614;2022-08-24T05:38:53;17.13;;;14.05;;
20441;SDS011;10380;52.102;20.614;2022-08-24T05:41:21;17.60;;;13.45;;
20441;SDS011;10380;52.102;20.614;2022-08-24T05:43:49;18.83;;;14.52;;
20441;SDS011;10380;52.102;20.614;2022-08-24T05:46:17;16.95;;;12.95;;
20441;SDS011;10380;52.102;20.614;2022-08-24T05:48:46;18.77;;;14.85;;
20441;SDS011;10380;52.102;20.614;2022-08-24T05:51:18;16.30;;;13.77;;
20441;SDS011;10380;52.102;20.614;2022-08-24T05:53:46;18.30;;;13.70;;
20441;SDS011;10380;52.102;20.614;2022-08-24T05:56:14;22.30;;;14.10;;
20441;SDS011;10380;52.102;20.614;2022-08-24T05:58:43;18.17;;;13.00;;
20441;SDS011;10380;52.102;20.614;2022-08-24T06:01:13;19.55;;;13.95;;
20441;SDS011;10380;52.102;20.614;2022-08-24T06:03:46;16.75;;;13.32;;
20441;SDS011;10380;52.102;20.614;2022-08-24T06:06:14;13.20;;;11.80;;
20441;SDS011;10380;52.102;20.614;2022-08-24T06:08:43;18.35;;;14.30;;
20441;SDS011;10380;52.102;20.614;2022-08-24T06:11:19;15.85;;;13.45;;
20441;SDS011;10380;52.102;20.614;2022-08-24T06:13:57;15.95;;;12.45;;
20441;SDS011;10380;52.102;20.614;2022-08-24T06:16:27;15.63;;;12.80;;
20441;SDS011;10380;52.102;20.614;2022-08-24T06:18:54;16.80;;;13.35;;
20441;SDS011;10380;52.102;20.614;2022-08-24T06:21:23;14.82;;;12.65;;
20441;SDS011;10380;52.102;20.614;2022-08-24T06:23:54;23.25;;;12.57;;
20441;SDS011;10380;52.102;20.614;2022-08-24T06:26:22;16.55;;;13.23;;
20441;SDS011;10380;52.102;20.614;2022-08-24T06:29:16;14.50;;;13.05;;
20441;SDS011;10380;52.102;20.614;2022-08-24T06:31:45;18.50;;;12.82;;
20441;SDS011;10380;52.102;20.614;2022-08-24T06:34:20;15.68;;;12.40;;
20441;SDS011;10380;52.102;20.614;2022-08-24T06:36:49;17.60;;;13.02;;
20441;SDS011;10380;52.102;20.614;2022-08-24T06:39:17;20.00;;;13.15;;
20441;SDS011;10380;52.102;20.614;2022-08-24T06:41:44;19.63;;;14.98;;
20441;SDS011;10380;52.102;20.614;2022-08-24T06:44:11;18.17;;;14.27;;
20441;SDS011;10380;52.102;20.614;2022-08-24T06:46:38;21.42;;;13.48;;
20441;SDS011;10380;52.102;20.614;2022-08-24T06:49:06;16.52;;;13.45;;
20441;SDS011;10380;52.102;20.614;2022-08-24T06:51:34;16.23;;;13.98;;
20441;SDS011;10380;52.102;20.614;2022-08-24T06:54:01;17.55;;;12.85;;
20441;SDS011;10380;52.102;20.614;2022-08-24T06:56:28;16.60;;;13.70;;
20441;SDS011;10380;52.102;20.614;2022-08-24T06:58:55;15.23;;;13.52;;
20441;SDS011;10380;52.102;20.614;2022-08-24T07:01:24;17.02;;;12.40;;
20441;SDS011;10380;52.102;20.614;2022-08-24T07:03:53;14.02;;;12.15;;
20441;SDS011;10380;52.102;20.614;2022-08-24T07:06:21;13.60;;;12.18;;
20441;SDS011;10380;52.102;20.614;2022-08-24T07:08:50;16.73;;;11.73;;
20441;SDS011;10380;52.102;20.614;2022-08-24T07:11:18;15.77;;;12.27;;
20441;SDS011;10380;52.102;20.614;2022-08-24T07:13:46;17.92;;;13.90;;
20441;SDS011;10380;52.102;20.614;2022-08-24T07:16:15;15.38;;;12.85;;
20441;SDS011;10380;52.102;20.614;2022-08-24T07:18:43;14.38;;;12.88;;
20441;SDS011;10380;52.102;20.614;2022-08-24T07:21:16;19.38;;;13.45;;
20441;SDS011;10380;52.102;20.614;2022-08-24T07:23:45;18.58;;;13.55;;
20441;SDS011;10380;52.102;20.614;2022-08-24T07:26:17;20.02;;;13.98;;
20441;SDS011;10380;52.102;20.614;2022-08-24T07:28:51;16.05;;;13.95;;
20441;SDS011;10380;52.102;20.614;2022-08-24T07:31:20;18.30;;;13.32;;
20441;SDS011;10380;52.102;20.614;2022-08-24T07:33:47;19.83;;;13.82;;
20441;SDS011;10380;52.102;20.614;2022-08-24T07:36:14;17.35;;;12.98;;
20441;SDS011;10380;52.102;20.614;2022-08-24T07:38:48;13.75;;;12.35;;
20441;SDS011;10380;52.102;20.614;2022-08-24T07:41:20;15.77;;;12.43;;
20441;SDS011;10380;52.102;20.614;2022-08-24T07:44:08;18.75;;;12.63;;
20441;SDS011;10380;52.102;20.614;2022-08-24T07:46:38;21.73;;;14.48;;
20441;SDS011;10380;52.102;20.614;2022-08-24T07:49:06;18.75;;;13.38;;
20441;SDS011;10380;52.102;20.614;2022-08-24T07:51:54;19.33;;;13.18;;
20441;SDS011;10380;52.102;20.614;2022-08-24T07:54:21;14.45;;;12.55;;
20441;SDS011;10380;52.102;20.614;2022-08-24T07:56:48;19.00;;;13.68;;
20441;SDS011;10380;52.102;20.614;2022-08-24T07:59:16;14.18;;;12.80;;
20441;SDS011;10380;52.102;20.614;2022-08-24T08:01:43;14.88;;;12.10;;
20441;SDS011;10380;52.102;20.614;2022-08-24T08:04:10;20.50;;;13.50;;
20441;SDS011;10380;52.102;20.614;2022-08-24T08:06:42;16.40;;;12.13;;
20441;SDS011;10380;52.102;20.614;2022-08-24T08:09:09;15.75;;;12.18;;
20441;SDS011;10380;52.102;20.614;2022-08-24T08:11:36;17.35;;;13.75;;
20441;SDS011;10380;52.102;20.614;2022-08-24T08:14:03;13.55;;;12.00;;
20441;SDS011;10380;52.102;20.614;2022-08-24T08:16:30;16.27;;;12.00;;
20441;SDS011;10380;52.102;20.614;2022-08-24T08:18:58;18.02;;;12.00;;
20441;SDS011;10380;52.102;20.614;2022-08-24T08:21:42;19.13;;;12.45;;
20441;SDS011;10380;52.102;20.614;2022-08-24T08:24:32;16.15;;;12.13;;
20441;SDS011;10380;52.102;20.614;2022-08-24T08:27:00;17.20;;;11.38;;
20441;SDS011;10380;52.102;20.614;2022-08-24T08:29:29;17.42;;;12.10;;
20441;SDS011;10380;52.102;20.614;2022-08-24T08:31:58;15.18;;;13.52;;
20441;SDS011;10380;52.102;20.614;2022-08-24T08:34:28;16.13;;;12.75;;
20441;SDS011;10380;52.102;20.614;2022-08-24T08:36:57;14.93;;;11.95;;
20441;SDS011;10380;52.102;20.614;2022-08-24T08:39:25;15.38;;;11.10;;
20441;SDS011;10380;52.102;20.614;2022-08-24T09:02:25;18.13;;;11.98;;
20441;SDS011;10380;52.102;20.614;2022-08-24T09:07:57;17.23;;;13.18;;
20441;SDS011;10380;52.102;20.614;2022-08-24T09:35:05;13.20;;;10.43;;
20441;SDS011;10380;52.102;20.614;2022-08-24T09:58:05;17.00;;;9.50;;
20441;SDS011;10380;52.102;20.614;2022-08-24T10:00:47;18.63;;;10.20;;
20441;SDS011;10380;52.102;20.614;2022-08-24T10:12:06;17.10;;;10.68;;
20441;SDS011;10380;52.102;20.614;2022-08-24T10:20:27;12.80;;;10.52;;
20441;SDS011;10380;52.102;20.614;2022-08-24T10:28:26;17.25;;;10.30;;
20441;SDS011;10380;52.102;20.614;2022-08-24T10:39:17;17.95;;;9.20;;
20441;SDS011;10380;52.102;20.614;2022-08-24T10:42:11;14.50;;;8.00;;
20441;SDS011;10380;52.102;20.614;2022-08-24T10:48:21;15.38;;;7.85;;
20441;SDS011;10380;52.102;20.614;2022-08-24T10:51:05;15.88;;;8.20;;
20441;SDS011;10380;52.102;20.614;2022-08-24T10:53:50;17.98;;;8.18;;
20441;SDS011;10380;52.102;20.614;2022-08-24T10:56:28;14.63;;;7.93;;
20441;SDS011;10380;52.102;20.614;2022-08-24T11:01:38;20.17;;;9.23;;
20441;SDS011;10380;52.102;20.614;2022-08-24T11:04:10;15.98;;;8.48;;
20441;SDS011;10380;52.102;20.614;2022-08-24T11:06:40;23.05;;;8.23;;
20441;SDS011;10380;52.102;20.614;2022-08-24T11:09:11;24.52;;;8.50;;
20441;SDS011;10380;52.102;20.614;2022-08-24T11:11:46;21.17;;;7.90;;
20441;SDS011;10380;52.102;20.614;2022-08-24T11:16:43;23.52;;;7.97;;
20441;SDS011;10380;52.102;20.614;2022-08-24T11:19:15;26.70;;;7.28;;
20441;SDS011;10380;52.102;20.614;2022-08-24T11:21:57;20.60;;;8.23;;
20441;SDS011;10380;52.102;20.614;2022-08-24T11:35:01;29.73;;;7.57;;
20441;SDS011;10380;52.102;20.614;2022-08-24T11:37:32;26.58;;;7.50;;
20441;SDS011;10380;52.102;20.614;2022-08-24T11:40:01;25.30;;;8.82;;
20441;SDS011;10380;52.102;20.614;2022-08-24T11:42:34;23.65;;;8.00;;
20441;SDS011;10380;52.102;20.614;2022-08-24T11:51:20;18.20;;;6.40;;
20441;SDS011;10380;52.102;20.614;2022-08-24T11:56:44;26.92;;;8.07;;
20441;SDS011;10380;52.102;20.614;2022-08-24T11:59:38;24.10;;;7.80;;
20441;SDS011;10380;52.102;20.614;2022-08-24T12:10:50;26.40;;;7.50;;
20441;SDS011;10380;52.102;20.614;2022-08-24T12:13:45;31.08;;;7.28;;
20441;SDS011;10380;52.102;20.614;2022-08-24T12:16:29;26.88;;;7.22;;
20441;SDS011;10380;52.102;20.614;2022-08-24T12:21:50;30.42;;;7.47;;
20441;SDS011;10380;52.102;20.614;2022-08-24T12:26:54;22.17;;;6.65;;
20441;SDS011;10380;52.102;20.614;2022-08-24T12:37:20;28.48;;;7.15;;
20441;SDS011;10380;52.102;20.614;2022-08-24T12:45:35;32.30;;;8.00;;
20441;SDS011;10380;52.102;20.614;2022-08-24T13:01:25;27.63;;;7.28;;
20441;SDS011;10380;52.102;20.614;2022-08-24T13:09:40;43.33;;;8.57;;
20441;SDS011;10380;52.102;20.614;2022-08-24T13:17:52;36.55;;;6.93;;
20441;SDS011;10380;52.102;20.614;2022-08-24T13:20:29;36.75;;;8.30;;
20441;SDS011;10380;52.102;20.614;2022-08-24T13:23:19;37.63;;;7.82;;
20441;SDS011;10380;52.102;20.614;2022-08-24T13:25:52;42.22;;;8.45;;
20441;SDS011;10380;52.102;20.614;2022-08-24T13:36:44;37.40;;;8.48;;
20441;SDS011;10380;52.102;20.614;2022-08-24T13:39:09;39.92;;;8.07;;
20441;SDS011;10380;52.102;20.614;2022-08-24T13:50:04;43.85;;;9.23;;
20441;SDS011;10380;52.102;20.614;2022-08-24T13:58:24;45.15;;;9.10;;
20441;SDS011;10380;52.102;20.614;2022-08-24T14:12:40;50.03;;;9.27;;
20441;SDS011;10380;52.102;20.614;2022-08-24T14:37:46;38.67;;;9.27;;
20441;SDS011;10380;52.102;20.614;2022-08-24T14:43:21;41.47;;;7.70;;
20441;SDS011;10380;52.102;20.614;2022-08-24T14:53:56;57.50;;;9.15;;
20441;SDS011;10380;52.102;20.614;2022-08-24T15:08:01;41.33;;;8.02;;
20441;SDS011;10380;52.102;20.614;2022-08-24T15:10:43;39.55;;;7.10;;
20441;SDS011;10380;52.102;20.614;2022-08-24T15:13:28;35.03;;;7.20;;
20441;SDS011;10380;52.102;20.614;2022-08-24T15:19:43;37.40;;;8.35;;
20441;SDS011;10380;52.102;20.614;2022-08-24T15:22:19;34.90;;;7.35;;
20441;SDS011;10380;52.102;20.614;2022-08-24T15:24:55;50.15;;;8.65;;
20441;SDS011;10380;52.102;20.614;2022-08-24T15:30:32;45.42;;;8.15;;
20441;SDS011;10380;52.102;20.614;2022-08-24T15:35:46;44.50;;;7.07;;
20441;SDS011;10380;52.102;20.614;2022-08-24T15:43:51;35.70;;;8.48;;
20441;SDS011;10380;52.102;20.614;2022-08-24T15:46:48;34.80;;;7.53;;
20441;SDS011;10380;52.102;20.614;2022-08-24T15:49:28;33.90;;;7.25;;
20441;SDS011;10380;52.102;20.614;2022-08-24T15:52:06;48.13;;;7.55;;
20441;SDS011;10380;52.102;20.614;2022-08-24T15:54:42;34.63;;;7.63;;
20441;SDS011;10380;52.102;20.614;2022-08-24T15:57:25;36.58;;;7.88;;
20441;SDS011;10380;52.102;20.614;2022-08-24T16:00:04;33.67;;;7.72;;
20441;SDS011;10380;52.102;20.614;2022-08-24T16:02:41;44.85;;;7.72;;
20441;SDS011;10380;52.102;20.614;2022-08-24T16:10:41;41.03;;;7.03;;
20441;SDS011;10380;52.102;20.614;2022-08-24T16:18:44;53.25;;;8.50;;
20441;SDS011;10380;52.102;20.614;2022-08-24T16:21:20;49.97;;;8.00;;
20441;SDS011;10380;52.102;20.614;2022-08-24T16:24:10;35.80;;;8.27;;
20441;SDS011;10380;52.102;20.614;2022-08-24T16:29:47;39.85;;;7.72;;
20441;SDS011;10380;52.102;20.614;2022-08-24T16:32:11;46.85;;;7.15;;
20441;SDS011;10380;52.102;20.614;2022-08-24T16:37:34;45.63;;;8.75;;
20441;SDS011;10380;52.102;20.614;2022-08-24T16:40:02;43.08;;;8.30;;
20441;SDS011;10380;52.102;20.614;2022-08-24T16:42:30;53.97;;;9.25;;
20441;SDS011;10380;52.102;20.614;2022-08-24T16:44:58;43.47;;;8.60;;
20441;SDS011;10380;52.102;20.614;2022-08-24T16:47:26;44.67;;;8.30;;
20441;SDS011;10380;52.102;20.614;2022-08-24T16:49:53;36.25;;;7.43;;
20441;SDS011;10380;52.102;20.614;2022-08-24T16:52:20;37.28;;;7.90;;
20441;SDS011;10380;52.102;20.614;2022-08-24T16:54:48;46.38;;;9.25;;
20441;SDS011;10380;52.102;20.614;2022-08-24T16:57:20;39.33;;;8.57;;
20441;SDS011;10380;52.102;20.614;2022-08-24T16:59:50;46.03;;;8.80;;
20441;SDS011;10380;52.102;20.614;2022-08-24T17:02:20;41.75;;;8.98;;
20441;SDS011;10380;52.102;20.614;2022-08-24T17:04:48;36.58;;;8.02;;
20441;SDS011;10380;52.102;20.614;2022-08-24T17:07:19;54.88;;;9.30;;
20441;SDS011;10380;52.102;20.614;2022-08-24T17:09:50;39.17;;;7.72;;
20441;SDS011;10380;52.102;20.614;2022-08-24T17:12:17;38.47;;;9.18;;
20441;SDS011;10380;52.102;20.614;2022-08-24T17:14:45;37.50;;;8.13;;
20441;SDS011;10380;52.102;20.614;2022-08-24T17:17:14;39.00;;;8.55;;
20441;SDS011;10380;52.102;20.614;2022-08-24T17:19:50;42.40;;;9.15;;
20441;SDS011;10380;52.102;20.614;2022-08-24T17:22:21;49.53;;;9.07;;
20441;SDS011;10380;52.102;20.614;2022-08-24T17:24:49;36.47;;;7.93;;
20441;SDS011;10380;52.102;20.614;2022-08-24T17:27:17;36.25;;;8.07;;
20441;SDS011;10380;52.102;20.614;2022-08-24T17:29:47;39.88;;;8.48;;
20441;SDS011;10380;52.102;20.614;2022-08-24T17:32:14;36.65;;;8.98;;
20441;SDS011;10380;52.102;20.614;2022-08-24T17:34:41;49.17;;;8.52;;
20441;SDS011;10380;52.102;20.614;2022-08-24T17:37:09;40.55;;;8.70;;
20441;SDS011;10380;52.102;20.614;2022-08-24T17:39:36;53.92;;;9.52;;
20441;SDS011;10380;52.102;20.614;2022-08-24T17:42:04;42.55;;;8.90;;
20441;SDS011;10380;52.102;20.614;2022-08-24T17:44:52;45.95;;;8.15;;
20441;SDS011;10380;52.102;20.614;2022-08-24T17:47:20;47.13;;;10.13;;
20441;SDS011;10380;52.102;20.614;2022-08-24T17:49:47;34.33;;;8.63;;
20441;SDS011;10380;52.102;20.614;2022-08-24T17:52:14;33.83;;;9.15;;
20441;SDS011;10380;52.102;20.614;2022-08-24T17:54:41;43.00;;;8.45;;
20441;SDS011;10380;52.102;20.614;2022-08-24T17:57:12;45.38;;;10.45;;
20441;SDS011;10380;52.102;20.614;2022-08-24T17:59:39;46.22;;;9.48;;
20441;SDS011;10380;52.102;20.614;2022-08-24T18:02:09;43.78;;;10.13;;
20441;SDS011;10380;52.102;20.614;2022-08-24T18:04:37;43.10;;;8.80;;
20441;SDS011;10380;52.102;20.614;2022-08-24T18:07:13;34.33;;;8.98;;
20441;SDS011;10380;52.102;20.614;2022-08-24T18:10:06;42.50;;;9.55;;
20441;SDS011;10380;52.102;20.614;2022-08-24T18:12:35;41.30;;;10.82;;
20441;SDS011;10380;52.102;20.614;2022-08-24T18:15:02;41.60;;;9.40;;
20441;SDS011;10380;52.102;20.614;2022-08-24T18:17:36;47.30;;;8.98;;
20441;SDS011;10380;52.102;20.614;2022-08-24T18:20:07;37.22;;;9.15;;
20441;SDS011;10380;52.102;20.614;2022-08-24T18:22:37;38.05;;;10.07;;
20441;SDS011;10380;52.102;20.614;2022-08-24T18:25:10;42.28;;;11.05;;
20441;SDS011;10380;52.102;20.614;2022-08-24T18:27:38;46.80;;;10.27;;
20441;SDS011;10380;52.102;20.614;2022-08-24T18:30:12;51.75;;;10.40;;
20441;SDS011;10380;52.102;20.614;2022-08-24T18:32:43;54.47;;;9.27;;
20441;SDS011;10380;52.102;20.614;2022-08-24T18:35:10;50.53;;;7.65;;
20441;SDS011;10380;52.102;20.614;2022-08-24T18:37:37;20.10;;;5.03;;
20441;SDS011;10380;52.102;20.614;2022-08-24T18:40:04;17.48;;;4.18;;
20441;SDS011;10380;52.102;20.614;2022-08-24T18:42:33;16.25;;;3.90;;
20441;SDS011;10380;52.102;20.614;2022-08-24T18:45:00;19.95;;;3.67;;
20441;SDS011;10380;52.102;20.614;2022-08-24T18:47:30;10.15;;;3.22;;
20441;SDS011;10380;52.102;20.614;2022-08-24T18:49:57;18.80;;;3.28;;
20441;SDS011;10380;52.102;20.614;2022-08-24T18:52:24;13.63;;;3.60;;
20441;SDS011;10380;52.102;20.614;2022-08-24T18:54:51;12.43;;;3.15;;
20441;SDS011;10380;52.102;20.614;2022-08-24T18:57:19;13.23;;;3.38;;
20441;SDS011;10380;52.102;20.614;2022-08-24T18:59:46;17.42;;;3.25;;
20441;SDS011;10380;52.102;20.614;2022-08-24T19:02:14;9.32;;;3.08;;
20441;SDS011;10380;52.102;20.614;2022-08-24T19:04:56;9.50;;;3.20;;
20441;SDS011;10380;52.102;20.614;2022-08-24T19:07:27;13.55;;;3.67;;
20441;SDS011;10380;52.102;20.614;2022-08-24T19:09:55;11.70;;;3.55;;
20441;SDS011;10380;52.102;20.614;2022-08-24T19:12:23;15.02;;;2.97;;
20441;SDS011;10380;52.102;20.614;2022-08-24T19:14:52;11.82;;;3.25;;
20441;SDS011;10380;52.102;20.614;2022-08-24T19:17:23;9.02;;;2.85;;
20441;SDS011;10380;52.102;20.614;2022-08-24T19:19:50;12.95;;;3.67;;
20441;SDS011;10380;52.102;20.614;2022-08-24T19:22:17;14.35;;;3.15;;
20441;SDS011;10380;52.102;20.614;2022-08-24T19:24:46;14.20;;;3.50;;
20441;SDS011;10380;52.102;20.614;2022-08-24T19:27:14;14.30;;;3.92;;
20441;SDS011;10380;52.102;20.614;2022-08-24T19:29:41;8.30;;;3.20;;
20441;SDS011;10380;52.102;20.614;2022-08-24T19:32:22;11.38;;;3.10;;